Date,TemperatureHighF,TemperatureAvgF,TemperatureLowF,DewpointHighF,DewpointAvgF,DewpointLowF,HumidityHigh,HumidityAvg,HumidityLow,PressureMaxIn,PressureMinIn,WindSpeedMaxMPH,WindSpeedAvgMPH,GustSpeedMaxMPH,PrecipitationSumIn
2013-1-1,66.6,57.3,50.5,56.4,51.7,45.3,95,82,68,30.12,29.87,10,2,11,0.00
2013-1-2,64.4,58.2,48.6,59.2,54.6,45.7,95,88,79,30.15,29.85,15,4,17,0.01
2013-1-3,48.5,45.0,39.1,45.7,42.6,37.5,94,91,87,30.25,30.08,11,2,11,0.10
2013-1-4,54.3,41.5,31.2,40.9,34.2,29.8,100,78,40,30.33,30.21,14,1,14,0.01
2013-1-5,53.4,39.9,28.6,38.3,32.2,27.0,95,77,38,30.39,30.27,9,1,9,0.00
2013-1-6,54.5,48.6,40.8,47.2,44.1,38.4,95,85,68,30.27,30.06,11,1,11,0.02
2013-1-7,55.7,48.2,38.9,45.7,39.4,33.2,94,73,45,30.38,30.14,16,3,16,0.00
2013-1-8,65.5,53.1,43.8,55.0,46.2,36.3,94,78,66,30.39,30.30,12,2,12,0.00
2013-1-9,72.6,60.6,47.8,62.1,56.1,45.9,95,86,65,30.38,30.30,13,1,13,0.00
2013-1-10,68.6,60.5,55.3,58.0,53.0,41.9,96,78,52,30.44,30.35,17,4,17,0.01
2013-1-11,75.5,63.1,55.4,66.7,59.4,47.5,96,88,71,30.36,30.15,14,2,14,0.19
2013-1-12,80.0,67.7,60.7,65.5,62.3,58.7,96,84,57,30.18,30.09,19,2,19,0.02
2013-1-13,75.4,65.0,58.5,64.9,60.6,56.9,96,87,66,30.16,30.06,17,1,18,0.01
2013-1-14,78.9,66.3,57.6,66.7,61.6,56.5,97,86,62,30.17,30.08,15,2,15,0.01
2013-1-15,76.7,65.8,59.0,65.9,62.1,57.3,96,88,66,30.15,30.01,11,2,11,0.01
2013-1-16,79.8,69.7,61.9,66.1,63.4,60.5,96,82,54,30.04,29.92,23,4,23,0.01
2013-1-17,76.3,64.0,45.0,67.2,58.6,41.8,95,83,64,30.02,29.71,34,6,37,0.23
2013-1-18,53.2,44.3,37.9,41.8,34.1,26.3,91,70,36,30.48,30.02,20,6,34,0.00
2013-1-19,60.7,45.8,35.5,45.9,37.9,31.2,94,75,52,30.47,30.19,10,2,10,0.00
2013-1-20,67.8,51.4,39.5,47.9,39.5,30.3,96,70,25,30.19,29.99,18,3,22,0.01
2013-1-21,66.8,52.3,34.6,48.8,37.2,32.3,96,62,28,30.06,29.90,21,3,21,0.00
2013-1-22,54.0,44.7,30.1,35.3,27.9,20.0,88,54,30,30.23,29.98,14,4,19,0.00
2013-1-23,47.4,37.2,29.2,36.2,20.4,7.9,92,55,22,30.37,30.13,14,2,14,0.00
2013-1-24,58.2,45.1,30.5,44.9,30.7,11.6,81,58,40,30.49,30.02,21,7,28,0.00
2013-1-25,41.9,34.6,26.7,34.5,22.3,9.6,78,61,44,30.48,30.12,18,4,18,0.00
2013-1-26,47.9,38.6,33.5,36.0,30.4,28.1,85,72,63,30.20,30.09,17,3,17,0.00
2013-1-28,61.6,53.0,42.0,55.1,48.0,36.6,95,84,66,30.44,30.26,11,1,11,0.00
2013-1-29,75.4,58.4,42.7,63.9,54.1,41.3,96,87,65,30.26,30.10,14,2,20,0.00
2013-1-30,73.0,68.3,61.7,66.7,64.2,60.3,95,87,80,30.10,29.57,29,7,29,0.01
2013-1-31,71.0,51.5,43.9,66.4,35.6,24.1,93,57,31,30.12,29.57,47,10,47,0.35
2013-2-1,55.2,45.0,32.8,34.2,24.3,8.3,67,46,18,30.35,30.07,35,6,35,0.00
2013-2-2,50.4,39.5,28.9,42.2,28.1,13.6,94,64,45,30.38,30.05,13,2,13,0.00
2013-2-3,59.4,47.8,39.0,39.7,35.2,31.3,87,64,37,30.05,29.86,24,6,32,0.00
2013-2-4,49.2,40.5,28.3,36.8,32.1,26.3,95,74,49,30.13,29.99,8,1,8,0.00
2013-2-5,68.0,52.7,37.8,49.5,41.5,35.7,94,70,34,30.05,29.91,25,2,25,0.00
2013-2-6,70.3,56.1,45.3,51.4,46.0,39.8,93,72,34,30.19,29.98,11,2,13,0.00
2013-2-7,61.1,52.4,44.6,55.8,49.6,42.4,95,90,71,30.19,29.69,28,3,28,0.79
2013-2-8,63.3,55.9,49.4,56.4,49.5,46.0,95,80,60,30.02,29.63,30,7,30,0.06
2013-2-9,59.8,47.4,35.3,47.9,32.7,23.8,92,61,27,30.34,30.02,24,4,24,0.00
2013-2-10,61.0,47.4,32.5,55.3,41.6,30.6,94,81,58,30.42,30.20,18,2,18,0.01
2013-2-11,66.8,62.0,55.4,63.4,59.6,53.4,96,92,85,30.24,29.99,20,4,20,0.55
2013-2-12,63.8,57.8,50.4,58.4,54.6,48.1,96,89,66,30.10,29.89,14,2,14,0.61
2013-2-13,67.3,55.4,48.9,61.7,51.7,47.2,98,88,66,29.92,29.65,28,5,28,0.15
2013-2-14,55.3,48.5,40.1,49.7,41.2,37.1,93,77,55,30.06,29.80,16,2,18,0.00
2013-2-15,58.7,45.6,33.2,44.7,38.6,31.8,100,79,48,30.08,29.94,13,1,13,0.01
2013-2-16,52.7,41.4,34.1,43.5,38.2,32.4,96,89,67,29.95,29.77,32,5,32,0.24
2013-2-17,42.1,34.1,26.8,32.6,25.1,18.7,93,72,40,30.28,29.94,41,6,41,0.02
2013-2-18,51.4,37.4,24.2,33.0,27.2,22.0,94,70,35,30.42,30.26,12,2,12,0.00
2013-2-19,63.0,49.8,32.4,55.7,46.2,30.1,96,88,62,30.26,29.93,23,3,23,0.11
2013-2-20,56.7,47.3,34.9,48.0,36.6,22.9,95,69,31,30.12,29.99,15,2,15,0.01
2013-2-21,59.5,45.1,35.4,44.1,33.6,24.3,94,67,33,30.19,30.07,7,2,12,0.00
2013-2-22,52.4,48.1,43.8,49.6,44.0,30.9,96,86,58,30.24,30.04,18,4,18,0.14
2013-2-23,49.9,46.4,43.5,48.7,45.3,42.4,97,96,95,30.04,29.74,21,4,21,0.37
2013-2-24,67.0,52.7,44.9,51.0,47.2,41.7,97,84,41,29.99,29.74,22,4,22,0.01
2013-2-25,46.6,44.5,41.7,44.0,38.6,35.8,96,80,68,30.13,29.94,16,3,16,0.01
2013-2-26,71.7,59.2,43.0,66.4,56.6,40.8,96,91,81,30.01,29.55,31,6,31,1.02
2013-2-27,59.4,53.3,48.2,56.5,44.0,38.7,93,71,54,29.84,29.65,25,6,25,0.00
2013-2-28,58.5,50.6,40.2,43.2,37.9,33.0,88,64,39,29.85,29.73,31,6,31,0.00
2013-3-1,54.7,46.2,37.2,38.5,34.3,31.2,89,64,43,29.91,29.81,21,4,21,0.00
2013-3-2,49.5,41.4,33.7,38.0,34.5,31.1,95,78,53,29.89,29.80,20,3,20,0.00
2013-3-3,49.6,41.9,36.7,36.5,28.6,24.5,90,61,41,29.96,29.84,28,6,28,0.00
2013-3-4,53.7,40.9,32.4,31.9,24.7,18.3,82,56,27,30.13,29.95,25,5,25,0.00
2013-3-5,65.5,53.5,37.2,56.0,43.1,32.1,94,70,42,30.10,29.63,32,4,32,0.03
2013-3-6,63.1,49.8,42.8,54.8,32.6,25.6,79,53,37,30.04,29.59,46,13,46,0.00
2013-3-7,58.1,46.5,36.6,36.2,32.8,30.3,79,60,39,30.18,30.02,22,6,23,0.00
2013-3-8,57.7,47.3,37.0,34.2,30.7,27.1,75,54,32,30.25,30.12,29,6,29,0.00
2013-3-9,64.1,48.7,35.2,42.7,35.7,29.8,91,63,37,30.29,30.20,18,3,18,0.00
2013-3-10,61.9,47.9,35.1,46.1,35.5,21.2,95,69,23,30.29,30.19,14,2,14,0.00
2013-3-11,70.8,58.1,41.9,59.7,51.4,39.0,95,80,55,30.22,29.90,24,3,24,0.00
2013-3-12,71.3,64.6,58.4,63.4,59.8,49.6,95,85,72,29.92,29.75,20,3,20,0.31
2013-3-13,63.7,55.3,45.9,50.5,36.2,25.0,78,52,23,30.08,29.89,30,6,30,0.00
2013-3-14,54.9,45.2,37.0,32.8,25.7,20.3,77,48,29,30.26,30.07,26,6,26,0.00
2013-3-15,60.4,47.6,30.6,45.9,34.9,23.8,94,65,30,30.21,29.97,18,3,18,0.00
2013-3-16,80.3,66.7,55.1,52.6,47.2,42.5,70,52,27,29.99,29.77,30,7,30,0.00
2013-3-17,78.6,66.5,57.2,59.7,52.0,46.5,73,60,39,30.02,29.89,22,4,22,0.00
2013-3-18,61.9,53.3,52.5,52.5,50.4,50.2,92,90,66,30.04,30.01,15,2,15,0.01
2013-3-19,52.5,52.5,52.5,50.2,50.2,50.2,92,92,92,30.04,30.04,2,2,11,0.01
2013-3-20,52.5,52.5,52.5,50.2,50.2,50.2,92,92,92,30.04,30.04,2,2,11,0.01
2013-3-21,52.5,52.5,52.5,50.2,50.2,50.2,92,92,92,30.04,30.04,2,2,11,0.01
2013-3-22,52.5,52.5,52.5,50.2,50.2,50.2,92,92,92,30.04,30.04,2,2,11,0.01
2013-3-23,52.5,52.5,52.5,50.2,50.2,50.2,92,92,92,30.04,30.04,2,2,11,0.01
2013-3-24,52.5,52.5,52.5,50.2,50.2,50.2,92,92,92,30.04,30.04,2,2,11,0.01
2013-3-25,52.5,52.5,52.5,50.2,50.2,50.2,92,92,92,30.04,30.04,2,2,11,0.01
2013-3-26,52.5,52.5,52.5,50.2,50.2,50.2,92,92,92,30.04,30.04,2,2,11,0.01
2013-3-27,52.5,52.5,52.5,50.2,50.2,50.2,92,92,92,30.04,30.04,2,2,11,0.01
2013-3-28,52.5,52.5,52.5,50.2,50.2,50.2,92,92,92,30.04,30.04,2,2,11,0.01
2013-3-29,52.5,52.5,52.5,50.2,50.2,50.2,92,92,92,30.04,30.04,2,2,11,0.01
2013-3-30,52.5,52.5,52.5,50.2,50.2,50.2,92,92,92,30.04,30.04,2,2,11,0.01
2013-3-31,52.5,52.5,52.5,50.2,50.2,50.2,92,92,92,30.04,30.04,2,2,11,0.01
2013-4-1,52.5,52.5,52.5,50.2,50.2,50.2,92,92,92,30.04,30.04,2,2,11,0.01
2013-4-2,52.5,52.5,52.5,50.2,50.2,50.2,92,92,92,30.04,30.04,2,2,11,0.01
2013-4-3,52.5,52.5,52.5,50.2,50.2,50.2,92,92,92,30.04,30.04,2,2,11,0.01
2013-4-4,52.5,52.5,52.5,50.2,50.2,50.2,92,92,92,30.04,30.04,2,2,11,0.01
2013-4-5,52.5,52.5,52.5,50.2,50.2,50.2,92,92,92,30.04,30.04,2,2,11,0.01
2013-4-6,52.5,52.5,52.5,50.2,50.2,50.2,92,92,92,30.04,30.04,2,2,11,0.01
2013-4-7,52.5,52.5,52.5,50.2,50.2,50.2,92,92,92,30.04,30.04,2,2,11,0.01
2013-4-8,52.5,52.5,52.5,50.2,50.2,50.2,92,92,92,30.04,30.04,2,2,11,0.01
2013-4-9,52.5,52.5,52.5,50.2,50.2,50.2,92,92,92,30.04,30.04,2,2,11,0.01
2013-4-10,52.5,52.5,52.5,50.2,50.2,50.2,92,92,92,30.04,30.04,2,2,11,0.01
2013-4-11,52.5,52.5,52.5,50.2,50.2,50.2,92,92,92,30.04,30.04,2,2,11,0.01
2013-4-12,52.5,52.5,52.5,50.2,50.2,50.2,92,92,92,30.04,30.04,2,2,11,0.01
2013-4-13,52.5,52.5,52.5,50.2,50.2,50.2,92,92,92,30.04,30.04,2,2,11,0.01
2013-4-14,52.5,52.5,52.5,50.2,50.2,50.2,92,92,92,30.04,30.04,2,2,11,0.01
2013-4-15,71.8,61.8,52.5,63.8,57.4,50.2,94,86,72,30.15,29.88,15,2,25,0.48
2013-4-16,76.8,67.5,59.6,65.1,62.0,57.9,95,83,65,30.23,30.14,13,2,13,0.00
2013-4-17,79.3,68.0,56.8,67.3,61.7,55.4,96,82,57,30.22,30.12,14,2,14,0.01
2013-4-18,76.7,68.9,60.0,68.7,64.3,58.3,96,86,67,30.15,30.02,18,2,18,0.01
2013-4-19,78.7,72.9,67.7,72.3,69.3,66.1,95,89,79,30.02,29.84,23,5,23,0.56
2013-4-20,68.3,57.3,45.8,67.1,50.9,41.9,96,80,53,30.23,29.87,24,5,24,0.15
2013-4-21,65.6,55.7,44.5,50.3,45.3,40.5,95,70,50,30.36,30.22,28,6,28,0.01
2013-4-22,67.6,56.1,46.4,52.3,46.2,36.0,85,70,57,30.34,30.12,22,8,22,0.00
2013-4-23,67.5,57.4,51.8,56.7,51.9,48.7,94,82,65,30.19,30.11,24,5,24,0.00
2013-4-24,73.8,62.5,48.5,62.9,56.4,47.1,96,82,67,30.17,30.04,18,3,18,0.00
2013-4-25,77.7,66.4,60.2,66.1,62.3,57.9,94,87,64,30.23,30.05,14,2,14,0.41
2013-4-26,70.6,60.9,52.0,57.9,50.9,39.1,94,73,32,30.38,30.21,18,3,18,0.01
2013-4-27,72.7,62.3,52.7,58.0,51.6,41.9,94,71,37,30.34,30.22,15,3,15,0.00
2013-4-28,72.4,67.0,61.0,63.5,61.0,55.5,93,81,69,30.22,30.05,18,4,18,0.00
2013-4-29,71.6,66.3,62.9,66.3,63.2,61.4,95,90,77,30.06,29.94,18,2,18,1.45
2013-4-30,72.1,66.3,62.3,66.9,63.0,60.8,96,90,72,30.08,29.94,13,2,13,0.15
2013-5-1,73.5,65.1,59.4,63.6,60.2,56.7,94,85,64,30.18,30.06,18,4,18,0.00
2013-5-2,71.9,66.3,63.2,64.0,61.6,57.6,93,85,72,30.20,30.13,20,5,20,0.00
2013-5-3,68.0,62.6,57.1,61.4,55.4,44.3,90,78,55,30.13,30.05,31,6,31,0.00
2013-5-4,65.0,59.4,55.0,60.2,54.8,48.3,93,85,74,30.06,29.93,20,6,20,0.10
2013-5-5,72.3,64.1,58.5,64.7,60.0,55.5,93,87,70,29.95,29.82,24,6,24,0.21
2013-5-6,75.3,66.6,57.7,64.9,60.2,51.2,96,81,47,29.88,29.80,19,4,19,0.61
2013-5-7,68.0,60.8,53.1,59.3,55.2,50.5,94,82,58,29.95,29.86,14,2,14,0.23
2013-5-8,78.8,66.2,54.2,63.8,58.1,52.5,95,77,47,30.01,29.92,16,2,16,0.01
2013-5-9,82.6,71.0,61.1,67.2,62.2,58.2,91,75,47,30.07,29.97,16,2,16,0.00
2013-5-10,84.8,73.2,61.6,67.8,63.3,58.6,92,73,48,30.07,29.98,16,2,16,0.00
2013-5-11,83.6,75.6,70.3,70.8,66.5,60.4,89,75,49,30.01,29.83,20,3,20,0.00
2013-5-12,81.7,73.7,62.7,67.5,60.0,47.8,88,65,35,29.96,29.80,25,5,25,0.00
2013-5-13,72.3,63.3,50.7,54.4,44.4,38.0,87,52,30,30.12,29.96,28,5,28,0.00
2013-5-14,70.6,61.2,48.2,53.4,45.2,38.3,94,59,37,30.24,30.12,18,3,18,0.00
2013-5-15,86.8,70.8,55.8,66.2,58.5,53.1,93,67,42,30.14,29.96,24,4,24,0.00
2013-5-16,87.2,75.4,65.8,69.3,64.2,59.2,83,69,44,30.02,29.94,18,3,18,0.00
2013-5-17,88.2,75.7,65.5,69.8,65.3,62.0,90,72,46,30.09,30.00,15,3,15,0.00
2013-5-18,83.0,73.2,63.7,70.9,66.7,58.6,95,81,47,30.14,30.07,16,2,16,0.00
2013-5-19,80.0,74.1,70.4,71.0,68.7,66.0,94,84,64,30.13,30.06,16,2,16,0.00
2013-5-20,74.8,72.3,71.1,71.9,69.6,67.5,95,91,85,30.11,30.02,17,2,17,1.32
2013-5-21,78.5,73.4,70.2,72.6,70.1,68.6,96,90,78,30.07,29.97,11,2,11,0.22
2013-5-22,82.0,74.6,65.7,72.4,69.7,64.2,97,85,71,30.02,29.92,21,3,21,0.00
2013-5-23,83.0,72.9,67.3,73.4,69.2,65.8,97,89,65,29.96,29.82,20,2,20,1.48
2013-5-24,80.8,72.0,57.8,67.9,60.3,46.8,96,70,38,30.15,29.79,29,6,29,0.01
2013-5-25,77.4,62.9,49.3,56.2,46.6,36.2,92,61,26,30.28,30.13,20,3,20,0.00
2013-5-26,77.8,66.9,56.6,60.7,55.5,50.3,92,70,42,30.24,30.13,12,2,12,0.00
2013-5-27,78.0,69.4,59.0,65.2,62.2,57.3,96,79,62,30.25,30.16,14,2,14,0.00
2013-5-28,81.4,72.7,61.7,70.3,65.2,60.0,96,79,56,30.25,30.17,16,2,16,0.00
2013-5-29,81.3,73.7,64.0,69.7,66.0,62.2,95,78,58,30.25,30.14,15,2,15,0.00
2013-5-30,83.6,75.1,63.9,72.1,68.2,61.5,95,80,63,30.25,30.17,12,2,12,0.00
2013-5-31,83.0,76.3,68.0,73.8,70.3,66.2,95,82,68,30.21,30.12,14,2,14,0.00
2013-6-1,82.8,75.6,66.1,72.4,68.8,64.6,96,81,61,30.15,30.06,15,2,17,0.00
2013-6-2,83.0,76.2,69.0,74.2,71.2,67.5,96,85,70,30.09,29.93,21,4,21,0.01
2013-6-3,79.5,74.6,69.0,75.9,72.0,66.6,96,92,81,29.95,29.83,29,2,29,1.36
2013-6-4,83.3,75.7,69.2,74.8,71.4,67.7,97,87,67,30.04,29.89,12,2,12,0.00
2013-6-5,80.2,76.4,74.4,73.8,72.6,70.8,94,88,80,30.05,29.96,20,5,20,0.00
2013-6-6,79.6,75.6,72.1,75.4,73.0,70.6,96,92,85,29.98,29.74,15,3,15,1.86
2013-6-7,82.8,77.0,72.6,74.6,73.1,71.1,96,88,71,29.84,29.53,28,6,28,0.76
2013-6-8,88.6,80.4,75.3,77.2,74.0,70.7,93,82,58,30.08,29.83,21,3,21,0.00
2013-6-9,85.3,79.1,73.7,77.5,74.5,71.6,96,86,73,30.13,30.06,14,2,14,0.00
2013-6-10,85.0,79.2,70.2,77.3,74.5,68.2,94,86,73,30.10,29.94,23,4,23,0.31
2013-6-11,88.5,77.0,70.0,76.4,72.3,68.2,96,86,63,30.00,29.88,20,4,20,0.58
2013-6-12,90.7,81.8,70.2,81.5,75.7,68.9,97,83,62,29.96,29.87,11,1,11,0.01
2013-6-13,95.3,86.4,77.8,79.0,76.4,73.8,94,74,51,29.89,29.66,25,4,25,0.00
2013-6-14,85.2,78.7,71.8,76.1,64.2,58.3,88,63,42,29.98,29.67,33,6,33,0.00
2013-6-15,82.5,74.0,61.4,67.2,60.4,49.4,94,66,32,30.12,29.98,15,2,15,0.00
2013-6-16,83.8,75.2,64.3,67.9,65.3,61.5,93,73,53,30.15,30.04,19,2,19,0.00
2013-6-17,86.3,77.4,69.0,75.4,71.3,65.8,94,82,63,30.07,29.94,18,2,18,0.05
2013-6-18,89.8,79.6,72.7,77.9,73.3,68.5,95,82,63,30.00,29.80,21,3,21,0.13
2013-6-19,80.1,77.0,72.7,75.6,72.5,69.6,94,86,75,30.05,29.84,14,4,14,0.48
2013-6-20,83.0,75.1,68.5,70.8,67.8,63.0,94,79,58,30.15,30.03,20,4,20,0.12
2013-6-21,82.7,73.5,64.9,74.0,67.7,60.0,94,83,69,30.17,30.09,16,3,16,0.52
2013-6-22,84.8,76.1,71.4,74.5,72.1,69.9,96,88,69,30.14,30.06,14,2,14,0.07
2013-6-23,83.6,77.4,70.3,77.3,73.6,68.8,97,88,74,30.18,30.12,14,2,14,0.39
2013-6-24,85.7,79.5,76.5,77.7,75.3,73.5,94,87,72,30.20,30.12,14,2,14,0.17
2013-6-25,88.7,80.7,74.3,77.9,75.1,72.8,96,84,62,30.14,30.02,16,2,16,0.00
2013-6-26,88.5,79.7,73.9,77.1,73.7,71.6,94,83,64,30.05,29.93,18,3,18,0.01
2013-6-27,92.3,80.5,73.5,78.1,74.6,68.0,95,83,59,29.99,29.76,27,4,27,0.00
2013-6-28,92.7,83.4,77.6,80.7,76.7,73.8,91,81,59,29.80,29.63,18,4,18,0.00
2013-6-29,86.8,78.8,73.5,77.6,74.1,70.8,95,86,69,29.76,29.65,24,3,24,0.33
2013-6-30,82.6,77.1,72.1,77.7,74.6,70.6,96,92,82,29.87,29.72,23,3,23,1.21
2013-7-1,80.9,76.3,72.6,77.8,74.1,71.1,97,93,81,30.02,29.82,25,4,25,2.87
2013-7-2,81.0,77.3,73.0,77.5,74.7,70.5,96,92,83,30.15,30.01,16,2,16,0.35
2013-7-3,85.3,79.7,76.0,78.6,76.0,73.7,95,89,78,30.22,30.12,21,3,21,0.10
2013-7-4,85.2,81.2,78.4,77.0,75.4,73.4,91,83,71,30.24,30.17,18,4,18,0.00
2013-7-5,85.3,81.2,77.7,78.2,75.9,74.1,92,84,75,30.24,30.16,17,3,18,0.00
2013-7-6,85.4,79.9,72.8,77.2,73.9,71.0,96,82,67,30.22,30.13,15,2,15,0.00
2013-7-7,86.2,78.9,72.3,76.9,73.0,70.4,96,83,67,30.18,30.08,14,2,14,0.04
2013-7-8,86.8,78.5,70.4,75.4,72.6,68.9,96,83,67,30.17,30.10,14,1,14,0.00
2013-7-9,87.9,80.3,71.8,76.3,73.7,70.0,95,81,65,30.17,30.07,17,2,17,0.00
2013-7-10,87.5,80.1,72.9,76.7,74.0,71.0,95,82,63,30.11,29.96,16,2,16,0.00
2013-7-11,89.1,80.4,73.7,76.6,74.2,71.1,95,82,56,29.99,29.87,19,3,19,0.00
2013-7-12,79.3,76.1,73.6,75.0,73.3,71.1,95,91,86,29.95,29.85,12,1,12,0.64
2013-7-13,85.7,78.2,73.4,76.9,74.2,71.9,95,88,74,30.09,29.92,15,3,15,0.04
2013-7-14,85.3,80.9,75.3,77.9,75.2,71.2,92,83,75,30.22,30.09,21,5,21,0.06
2013-7-15,86.3,81.4,77.5,77.4,76.1,75.0,93,84,72,30.25,30.18,18,4,18,0.00
2013-7-16,91.0,81.8,74.9,77.1,74.4,71.9,96,80,56,30.26,30.16,13,2,13,0.00
2013-7-17,94.0,78.7,71.1,80.2,74.1,67.6,96,86,56,30.19,30.07,20,2,22,1.06
2013-7-18,89.1,79.9,72.8,78.1,74.8,71.3,97,85,66,30.13,30.05,12,2,12,0.01
2013-7-19,87.2,79.9,72.6,78.8,74.5,71.1,96,84,67,30.11,30.00,13,2,16,0.07
2013-7-20,86.3,79.8,75.8,76.6,74.4,72.4,91,84,66,30.07,29.97,19,3,19,0.02
2013-7-21,85.7,78.3,74.6,77.6,73.8,71.8,92,86,72,30.03,29.92,16,3,16,0.01
2013-7-22,89.7,80.9,74.8,76.9,74.7,72.4,94,82,63,29.97,29.86,18,4,18,0.00
2013-7-23,89.2,81.1,75.3,76.1,74.0,72.4,91,80,64,29.89,29.75,19,4,19,0.00
2013-7-24,87.3,80.4,74.7,78.1,75.1,72.6,95,84,65,29.80,29.74,10,1,10,0.00
2013-7-25,90.9,80.6,72.7,77.0,73.3,70.2,95,80,55,29.97,29.75,14,2,14,0.00
2013-7-26,85.7,78.6,72.0,75.6,72.7,68.9,91,82,69,30.06,29.96,13,2,13,0.00
2013-7-27,86.2,79.0,70.6,75.1,72.7,68.8,96,82,65,30.03,29.91,8,2,13,0.00
2013-7-28,87.8,79.6,73.7,78.0,75.1,71.9,95,86,70,30.01,29.89,13,2,13,0.01
2013-7-29,90.0,78.7,72.1,79.8,74.6,69.9,96,88,62,30.12,29.99,15,2,18,0.81
2013-7-30,86.1,79.3,73.7,76.8,74.9,72.5,96,87,72,30.16,30.08,10,2,10,0.01
2013-7-31,85.7,78.8,75.2,77.6,75.2,73.4,96,89,74,30.11,29.99,10,1,10,0.11
2013-8-1,83.1,76.7,73.2,77.3,74.2,71.9,96,92,76,29.99,29.90,11,2,20,0.69
2013-8-2,86.4,78.9,73.7,79.5,75.8,72.4,97,90,71,30.03,29.91,12,2,12,1.18
2013-8-3,86.8,80.3,75.2,79.6,76.4,74.0,97,88,74,30.03,29.91,10,1,10,0.05
2013-8-4,91.8,81.6,73.6,76.8,73.9,70.4,96,79,57,29.99,29.87,13,3,16,0.01
2013-8-5,85.0,77.2,71.5,72.1,67.3,62.7,92,73,51,30.04,29.95,16,2,16,0.00
2013-8-6,84.8,77.9,69.9,71.8,68.5,63.4,92,74,57,30.04,29.94,9,1,9,0.00
2013-8-7,85.2,76.8,69.5,74.7,71.5,67.7,95,85,61,30.07,30.00,14,2,14,0.02
2013-8-8,87.3,78.4,71.3,78.3,74.5,69.8,96,88,70,30.05,29.99,14,1,14,0.61
2013-8-9,89.0,81.4,75.1,79.6,76.2,73.6,96,85,68,30.08,29.99,14,2,14,0.11
2013-8-10,92.3,82.3,73.1,80.1,76.0,71.6,97,82,58,30.10,30.03,15,2,15,0.00
2013-8-11,95.7,84.7,76.5,78.6,76.0,73.0,95,77,49,30.11,30.01,17,2,18,0.00
2013-8-12,95.3,85.3,77.7,79.8,77.0,74.9,92,78,54,30.05,29.92,21,3,21,0.00
2013-8-13,93.6,85.2,78.4,79.3,77.1,74.6,91,78,55,29.95,29.80,20,4,20,0.00
2013-8-14,82.9,77.7,67.2,77.9,73.8,64.4,93,88,74,30.00,29.80,28,3,28,0.09
2013-8-15,70.8,66.7,63.6,69.3,64.8,61.7,96,94,88,30.08,29.99,16,4,16,0.49
2013-8-16,75.2,70.2,65.8,71.7,68.0,64.0,95,93,87,30.08,30.01,18,4,18,0.61
2013-8-17,79.5,73.4,69.5,74.1,70.6,68.0,95,91,82,30.13,30.00,13,4,13,0.00
2013-8-18,88.5,78.0,70.6,77.0,73.3,69.0,96,86,60,30.18,30.09,9,1,9,0.00
2013-8-19,87.0,78.6,74.0,79.0,75.5,72.5,97,90,72,30.12,30.03,15,1,15,0.05
2013-8-20,84.1,77.9,74.4,79.0,75.9,72.9,97,93,80,30.15,30.05,9,1,9,1.05
2013-8-21,87.8,80.1,73.2,79.4,75.6,72.0,97,87,68,30.19,30.08,12,1,12,0.01
2013-8-22,89.5,78.9,72.5,78.0,74.6,71.0,97,87,63,30.13,30.01,11,1,11,0.06
2013-8-23,91.2,80.4,73.2,78.3,74.6,71.7,96,84,59,30.02,29.92,18,2,18,0.01
2013-8-24,82.5,76.8,72.5,75.1,69.7,66.8,93,79,60,30.21,29.98,16,4,16,0.00
2013-8-25,81.5,74.1,65.7,67.6,64.7,62.6,90,74,56,30.29,30.20,17,4,17,0.00
2013-8-26,83.8,74.2,65.6,67.6,64.4,60.5,92,73,51,30.25,30.10,14,2,14,0.00
2013-8-27,84.8,74.2,63.6,70.8,66.1,62.2,97,78,56,30.12,29.97,12,2,12,0.00
2013-8-28,91.2,79.6,70.1,75.0,70.7,65.9,92,76,54,30.01,29.90,18,2,18,0.00
2013-8-29,93.5,81.9,73.9,78.8,73.6,70.5,90,77,55,29.92,29.83,18,4,18,0.00
2013-8-30,84.9,78.4,71.7,75.0,73.1,69.4,93,84,68,29.99,29.91,15,3,16,0.00
2013-8-31,88.0,79.4,72.4,77.1,74.4,70.9,97,86,67,29.95,29.87,11,2,11,0.01
2013-9-1,92.3,81.6,74.9,79.6,75.9,73.4,96,84,56,29.94,29.81,18,2,18,0.00
2013-9-2,93.0,83.3,77.9,80.1,76.1,73.1,94,80,56,29.90,29.79,14,3,17,0.00
2013-9-3,92.8,78.8,72.7,76.6,73.0,69.3,95,83,57,29.92,29.80,49,2,49,0.36
2013-9-4,88.4,79.8,70.9,78.2,74.9,69.4,96,86,67,30.05,29.91,11,1,11,0.00
2013-9-5,91.8,81.6,73.9,78.3,74.7,70.2,96,81,52,30.06,29.98,12,1,12,0.00
2013-9-6,88.2,78.0,70.1,73.2,69.3,64.5,95,76,48,30.08,29.99,18,2,18,0.00
2013-9-7,84.0,75.3,67.4,70.1,67.9,65.1,93,79,58,30.07,29.95,12,2,12,0.00
2013-9-8,88.3,75.6,64.2,74.1,69.0,62.6,97,81,57,29.98,29.87,12,1,12,0.00
2013-9-9,86.9,77.6,68.1,74.6,70.8,66.6,96,81,61,30.11,29.95,13,1,13,0.00
2013-9-10,87.4,78.4,71.1,73.9,70.9,66.2,94,79,51,30.20,30.11,14,2,14,0.00
2013-9-11,86.6,77.7,71.3,74.5,71.0,67.8,94,81,57,30.17,30.07,13,2,13,0.00
2013-9-12,90.0,77.4,68.2,73.6,69.9,66.5,97,80,48,30.07,29.84,12,2,12,0.00
2013-9-13,90.0,79.0,72.8,76.9,71.9,66.7,93,80,54,29.84,29.72,17,3,17,0.00
2013-9-14,83.0,75.1,69.0,69.8,65.8,62.6,85,73,60,30.05,29.78,19,4,19,0.00
2013-9-15,82.7,75.3,67.4,74.0,69.9,64.7,92,83,75,30.16,30.05,20,3,20,0.00
2013-9-16,88.5,79.0,72.4,76.5,72.9,70.2,96,82,64,30.10,29.99,17,1,17,0.00
2013-9-17,79.3,73.5,68.1,71.8,63.2,59.1,89,71,52,30.20,30.06,17,5,17,0.00
2013-9-18,77.4,67.6,58.7,62.5,58.5,54.0,90,74,54,30.21,30.11,18,4,18,0.00
2013-9-19,81.5,70.4,61.7,64.4,61.0,58.0,91,74,48,30.14,30.05,15,2,15,0.00
2013-9-20,82.4,71.9,61.3,67.7,64.2,59.6,96,78,57,30.07,29.93,11,1,11,0.00
2013-9-21,83.5,75.5,67.1,73.9,70.0,65.0,95,83,67,29.93,29.69,15,2,15,0.01
2013-9-22,78.1,73.0,67.4,72.4,68.4,64.4,95,86,74,29.84,29.64,15,4,20,0.22
2013-9-23,79.3,69.0,61.1,65.0,60.1,57.3,94,75,49,30.03,29.84,17,2,17,0.01
2013-9-24,75.9,67.0,59.6,62.0,57.5,52.4,92,73,46,30.06,29.91,14,2,14,0.00
2013-9-25,75.8,68.2,58.9,65.9,62.1,56.6,94,81,71,29.92,29.80,13,2,13,0.09
2013-9-26,78.5,69.1,63.8,64.6,61.8,56.5,95,79,49,29.94,29.80,16,3,16,0.28
2013-9-27,78.9,68.8,60.6,62.9,59.6,56.9,92,74,52,30.10,29.93,21,4,21,0.00
2013-9-28,76.9,67.9,61.8,62.9,59.8,56.4,88,76,60,30.13,30.06,17,5,17,0.00
2013-9-29,77.0,66.4,56.9,60.3,57.4,54.3,94,75,48,30.09,29.98,18,4,18,0.00
2013-9-30,77.6,65.4,54.5,63.4,58.5,52.5,95,80,50,30.05,29.96,9,2,12,0.00
2013-10-1,80.9,66.5,53.7,62.7,58.1,52.3,96,77,45,30.11,30.01,19,2,19,0.01
2013-10-2,84.2,69.5,57.3,65.6,61.4,55.8,96,78,48,30.12,30.03,16,2,16,0.00
2013-10-3,81.8,70.7,59.6,71.5,65.5,58.0,96,85,57,30.13,30.06,10,1,10,0.00
2013-10-4,84.0,73.0,65.3,72.2,68.1,63.5,96,86,59,30.12,30.04,13,1,13,0.01
2013-10-5,85.0,73.5,63.6,72.2,67.7,62.2,97,84,55,30.10,30.02,9,2,13,0.01
2013-10-6,82.7,74.2,66.5,75.3,70.4,65.0,97,88,75,30.04,29.92,15,2,15,0.01
2013-10-7,78.3,75.3,73.4,74.4,72.8,71.3,95,92,86,29.92,29.79,10,2,13,0.26
2013-10-8,73.4,64.2,57.9,71.9,62.1,56.1,95,93,88,30.06,29.84,23,8,23,0.48
2013-10-9,73.7,63.8,58.1,63.7,58.8,56.0,94,84,71,30.04,29.99,22,10,32,0.01
2013-10-10,69.4,63.9,60.0,61.0,58.4,55.6,90,82,73,30.00,29.92,25,8,25,0.00
2013-10-11,78.9,69.1,63.3,67.3,63.2,60.6,93,82,63,29.96,29.87,22,4,22,0.00
2013-10-12,80.7,71.1,63.7,66.9,64.1,61.2,93,80,58,30.03,29.91,19,3,19,0.00
2013-10-13,74.8,68.5,61.4,67.2,64.7,59.7,95,88,76,30.10,30.02,13,5,21,0.00
2013-10-14,76.7,70.6,67.5,67.4,65.7,62.8,90,85,72,30.11,30.03,16,6,19,0.00
2013-10-15,72.1,66.6,61.5,64.3,61.7,58.4,91,84,74,30.10,29.98,13,5,15,0.00
2013-10-16,73.7,67.7,61.1,66.1,63.7,59.4,95,87,74,30.02,29.93,11,2,11,0.00
2013-10-17,80.4,68.8,58.1,68.7,63.6,57.0,97,84,64,29.97,29.86,13,2,13,0.00
2013-10-18,77.7,70.1,64.5,72.0,67.5,63.0,97,92,82,29.97,29.87,12,1,12,0.03
2013-10-19,79.0,71.2,66.2,73.6,68.4,64.3,97,91,77,29.93,29.83,12,1,12,0.51
2013-10-20,69.5,64.1,58.4,64.9,57.3,53.0,92,79,62,30.07,29.88,17,4,17,0.03
2013-10-21,70.1,62.1,55.1,61.8,56.2,52.3,92,81,64,30.10,29.98,10,2,10,0.00
2013-10-22,68.7,62.9,58.9,63.4,59.4,56.6,95,89,72,30.00,29.82,8,0,8,0.12
2013-10-23,72.0,63.1,54.8,60.8,52.8,40.2,97,72,37,29.99,29.71,31,5,31,0.09
2013-10-24,63.7,52.4,42.9,48.0,40.6,34.8,94,66,41,30.17,29.99,16,3,17,0.00
2013-10-25,60.3,50.1,39.8,47.7,40.3,34.5,96,72,39,30.33,30.11,20,4,20,0.00
2013-10-26,64.8,49.7,37.0,48.8,40.5,34.9,93,74,43,30.32,30.11,16,2,16,0.00
2013-10-27,71.5,54.9,40.9,55.0,46.8,39.3,100,77,47,30.12,30.03,12,1,12,0.00
2013-10-28,75.0,60.8,50.4,61.5,55.4,48.6,97,84,56,30.24,30.10,8,0,8,0.00
2013-10-29,75.5,61.5,50.1,62.0,56.4,48.7,97,85,54,30.30,30.21,9,1,9,0.01
2013-10-30,77.8,62.8,52.4,63.6,57.4,51.0,97,84,50,30.29,30.16,13,1,13,0.00
2013-10-31,78.0,66.7,53.6,69.1,62.0,52.2,97,86,67,30.19,29.96,21,2,21,0.01
2013-11-1,80.1,74.8,70.8,71.3,69.2,67.0,95,83,67,29.96,29.72,22,4,22,0.19
2013-11-2,71.6,64.9,54.9,70.1,60.5,51.1,96,86,59,29.92,29.70,21,3,21,0.47
2013-11-3,65.4,55.2,46.1,51.2,45.0,40.9,91,71,42,30.29,29.91,19,4,19,0.00
2013-11-4,63.5,53.3,44.0,45.2,41.6,38.8,84,66,47,30.44,30.28,18,4,18,0.00
2013-11-5,65.9,54.4,43.4,59.9,50.5,38.8,94,86,76,30.42,30.30,15,5,15,0.02
2013-11-6,75.1,65.4,57.1,65.3,60.1,52.4,95,83,69,30.31,30.07,14,3,14,0.10
2013-11-7,74.0,67.1,57.6,66.9,63.4,45.1,96,88,63,30.07,29.89,26,4,26,0.18
2013-11-8,60.0,50.6,38.9,45.2,36.8,30.7,92,62,36,30.28,30.03,23,6,23,0.00
2013-11-9,66.2,51.7,38.9,52.4,44.0,35.4,93,77,50,30.33,30.19,9,1,9,0.00
2013-11-10,69.2,57.0,47.3,53.4,49.2,43.9,96,78,43,30.22,30.10,13,2,13,0.00
2013-11-11,63.9,52.8,43.7,48.4,41.1,34.5,94,67,41,30.29,30.13,15,2,15,0.00
2013-11-12,69.5,53.5,36.6,50.3,41.9,29.5,96,68,41,30.35,29.98,36,5,36,0.00
2013-11-13,47.8,38.4,28.4,33.6,26.6,21.7,91,65,37,30.49,30.33,25,6,30,0.01
2013-11-14,62.0,42.1,26.9,41.3,31.8,24.7,93,72,31,30.49,30.32,10,1,11,0.01
2013-11-15,63.4,55.4,38.2,60.7,51.6,36.1,94,87,74,30.32,30.14,14,2,14,0.00
2013-11-16,74.5,64.5,58.1,65.2,60.5,56.4,97,88,62,30.20,30.13,11,2,11,0.00
2013-11-17,74.0,64.8,54.2,69.1,62.8,52.8,97,93,83,30.16,29.96,10,1,10,0.04
2013-11-18,82.0,72.8,63.1,71.4,66.8,46.1,96,82,53,29.96,29.77,23,4,23,0.01
2013-11-19,63.0,55.1,48.0,46.1,35.9,31.2,65,49,34,30.22,29.90,22,5,22,0.00
2013-11-20,59.2,51.0,43.2,46.8,41.4,35.3,81,70,59,30.34,30.20,20,6,20,0.00
2013-11-21,70.3,59.0,49.6,61.5,53.7,45.3,94,83,71,30.38,30.30,14,4,14,0.00
2013-11-22,74.3,64.5,59.6,65.5,61.4,57.9,97,90,67,30.31,30.10,10,1,10,0.01
2013-11-23,66.3,62.0,54.3,64.7,59.2,41.2,96,91,60,30.10,29.98,17,4,17,0.12
2013-11-24,54.3,41.2,29.7,41.2,20.8,10.8,67,45,26,30.51,30.09,29,8,29,0.00
2013-11-25,48.2,37.8,28.5,36.4,21.0,9.2,82,52,27,30.56,30.25,16,3,16,0.00
2013-11-26,71.8,59.8,41.5,70.2,57.6,36.4,97,93,82,30.25,29.57,24,5,24,1.45
2013-11-27,69.5,53.9,36.4,67.9,50.9,29.2,95,89,75,30.19,29.45,30,8,31,0.09
2013-11-28,47.5,36.5,31.4,32.2,26.5,20.6,93,69,40,30.47,30.18,21,4,21,0.00
2013-11-29,56.9,42.1,29.6,36.0,32.0,28.1,95,70,39,30.52,30.44,16,3,16,0.00
2013-11-30,56.6,46.1,34.9,44.1,37.5,29.8,83,72,59,30.52,30.28,17,5,17,0.00
2013-12-1,60.2,52.0,46.1,52.6,47.3,41.8,94,84,74,30.28,29.97,12,2,12,0.00
2013-12-2,62.1,52.7,43.6,52.3,48.3,42.0,95,86,62,29.97,29.78,15,2,15,0.00
2013-12-3,63.3,53.1,41.3,56.4,48.8,40.0,100,87,61,29.99,29.86,10,1,10,0.07
2013-12-4,73.9,62.6,56.5,65.3,59.8,54.8,97,91,71,30.08,29.96,14,1,14,0.10
2013-12-5,77.1,66.2,54.2,67.6,62.1,52.8,97,87,68,30.15,30.05,13,2,13,0.01
2013-12-6,79.8,72.1,66.5,69.3,66.9,64.0,94,84,61,30.14,30.03,20,5,20,0.00
2013-12-7,74.3,59.9,45.6,68.7,57.0,43.4,94,90,80,30.35,30.05,22,5,22,0.06
2013-12-8,45.6,43.5,42.1,43.4,42.0,40.8,96,94,90,30.35,30.24,17,4,17,0.03
2013-12-9,71.2,57.5,42.3,65.8,54.5,41.2,100,90,81,30.24,30.06,14,3,14,0.01
2013-12-10,74.2,68.9,45.1,68.8,63.6,42.9,93,83,71,30.30,29.88,29,4,29,0.12
2013-12-11,55.4,42.9,34.3,42.8,32.6,21.8,94,71,31,30.45,30.27,12,1,12,0.00
2013-12-12,52.0,40.3,29.6,38.1,30.2,21.3,96,72,31,30.38,30.24,21,3,21,0.01
2013-12-13,53.9,40.5,27.2,39.9,30.7,20.1,95,73,29,30.40,30.25,10,1,10,0.00
2013-12-14,69.5,59.9,45.6,67.6,55.5,39.8,95,86,74,30.25,29.75,24,4,24,0.44
2013-12-15,67.2,56.7,44.7,64.8,52.1,41.8,94,85,69,30.09,29.72,26,5,26,0.05
2013-12-16,60.4,45.6,34.0,45.1,39.0,32.2,95,80,45,30.19,30.09,14,2,14,0.00
2013-12-17,66.3,52.3,40.4,44.4,39.7,36.2,93,65,35,30.18,30.01,21,4,21,0.01
2013-12-18,55.9,46.5,32.2,39.8,33.3,26.8,92,63,33,30.31,30.02,15,3,17,0.00
2013-12-19,63.1,45.3,30.0,45.5,37.3,28.5,100,77,39,30.35,30.24,10,1,10,0.00
2013-12-20,74.3,58.8,43.9,60.7,53.6,42.3,96,84,59,30.24,30.13,16,1,16,0.01
2013-12-21,75.5,64.6,53.6,67.3,61.3,52.2,97,90,75,30.17,30.07,14,2,14,0.00
2013-12-22,81.7,72.8,64.7,71.1,67.7,62.5,96,84,67,30.11,30.05,23,5,23,0.00
2013-12-23,77.3,70.3,60.9,71.3,67.3,59.3,96,90,78,30.10,30.00,23,4,23,0.22
2013-12-24,61.0,50.2,40.0,59.9,44.6,33.7,96,82,60,30.38,30.03,24,6,24,0.08
2013-12-25,47.6,38.9,30.8,33.7,27.8,22.4,78,65,50,30.48,30.31,17,4,17,0.00
2013-12-26,48.0,42.3,36.7,42.9,38.0,30.0,93,85,73,30.31,30.21,16,5,16,0.02
2013-12-27,55.4,45.9,37.0,40.4,35.5,31.8,92,69,43,30.40,30.28,13,2,13,0.00
2013-12-28,61.6,48.9,32.6,54.2,39.8,29.0,93,73,34,30.38,30.05,11,2,11,0.13
2013-12-29,72.1,64.6,51.6,67.6,60.9,48.8,98,88,68,30.05,29.74,29,6,29,0.77
2013-12-30,57.3,50.4,46.0,51.4,48.1,44.7,96,92,76,30.13,29.93,11,2,11,0.01
2013-12-31,55.5,49.1,40.1,48.0,43.6,38.2,95,82,56,30.36,30.09,18,3,18,0.00
2014-1-1,51.1,44.5,37.6,45.1,40.2,35.8,96,86,58,30.38,30.12,10,2,10,0.13
2014-1-2,57.5,51.3,46.5,56.7,50.0,44.9,97,95,84,30.12,29.60,33,3,33,0.48